Terminal Aerodrome Forecast
Issued by NWS Omaha/Valley, NE

Home | Current Version | Previous Version | Text Only | Print | Product List | Glossary Off
Versions: 1 2 3 4 5 6 7 8 9 10 11 12 13 14 15 16 17 18 19 20 21 22 23 24 25 26 27

000
FTUS43 KOAX 291434 AAA
TAFOFK
TAF AMD
KOFK 291434Z 2915/3012 14005KT P6SM FEW020 BKN070
     FM292000 15008KT P6SM SCT040 BKN150
     FM300400 13008KT P6SM BKN050 PROB30 3009/3012 4SM -TSRA SCT015
      BKN030CB=

USA.gov is the U.S. government's official web portal to all federal, state and local government web resources and services.